createdAt,value
2023-03-26T00:05:13.120Z,8.53
2023-03-26T00:15:14.779Z,8.20
2023-03-26T00:25:17.167Z,8.30
2023-03-26T00:35:18.703Z,7.07
2023-03-26T00:45:20.259Z,7.53
2023-03-26T00:55:21.729Z,7.73
2023-03-26T01:05:51.231Z,8.37
2023-03-26T01:15:53.143Z,9.25
2023-03-26T01:26:05.989Z,8.90
2023-03-26T01:36:29.566Z,9.15
2023-03-26T01:46:33.721Z,9.40
2023-03-26T01:57:03.677Z,9.40
2023-03-26T02:07:26.441Z,9.18
2023-03-26T02:17:28.050Z,10.20
2023-03-26T02:27:29.521Z,10.43
2023-03-26T02:37:31.681Z,10.30
2023-03-26T02:47:33.316Z,10.47
2023-03-26T02:57:34.838Z,11.95
2023-03-26T03:07:36.392Z,12.47
2023-03-26T03:28:15.331Z,13.27
2023-03-26T03:38:17.384Z,12.47
2023-03-26T03:48:18.896Z,11.00
2023-03-26T03:58:21.888Z,8.70
2023-03-26T04:08:24.387Z,7.50
2023-03-26T04:18:25.837Z,5.97
2023-03-26T04:28:42.137Z,6.80
2023-03-26T04:49:04.891Z,6.43
2023-03-26T04:59:08.448Z,6.43
2023-03-26T05:09:09.977Z,6.00
2023-03-26T05:19:11.761Z,5.63
2023-03-26T05:29:15.925Z,5.50
2023-03-26T05:39:17.461Z,5.80
2023-03-26T05:49:19.051Z,6.35
2023-03-26T05:59:20.556Z,6.07
2023-03-26T06:09:22.292Z,4.13
2023-03-26T06:19:23.945Z,2.78
2023-03-26T06:29:25.749Z,2.60
2023-03-26T06:39:27.381Z,2.60
2023-03-26T06:49:28.956Z,2.90
2023-03-26T06:59:30.560Z,3.73
2023-03-26T07:09:32.084Z,5.55
2023-03-26T07:19:33.610Z,9.37
2023-03-26T07:30:02.837Z,10.30
2023-03-26T07:40:35.397Z,10.77
2023-03-26T07:50:37.182Z,12.70
2023-03-26T08:00:48.706Z,12.90
2023-03-26T08:11:17.666Z,13.47
2023-03-26T08:21:26.207Z,14.27
2023-03-26T08:31:35.033Z,12.20
2023-03-26T08:42:18.858Z,10.17
2023-03-26T08:52:20.318Z,12.00
2023-03-26T09:02:59.278Z,11.00
2023-03-26T09:13:28.352Z,11.63
2023-03-26T09:23:41.822Z,11.83
2023-03-26T09:34:02.879Z,10.37
2023-03-26T09:44:16.493Z,10.68
2023-03-26T09:54:45.814Z,9.77
2023-03-26T10:04:56.582Z,10.68
2023-03-26T10:15:00.975Z,9.57
2023-03-26T10:25:05.161Z,11.47
2023-03-26T10:35:35.417Z,8.80
2023-03-26T10:45:45.069Z,9.20
2023-03-26T10:55:51.955Z,7.80
2023-03-26T11:06:17.341Z,7.37
2023-03-26T11:16:27.968Z,7.90
2023-03-26T11:26:34.673Z,6.82
2023-03-26T11:36:42.306Z,5.47
2023-03-26T11:46:46.189Z,5.43
2023-03-26T11:57:05.803Z,6.53
2023-03-26T12:07:20.675Z,5.70
2023-03-26T12:17:34.236Z,4.32
2023-03-26T12:27:37.973Z,1.70
2023-03-26T12:37:41.119Z,1.25
2023-03-26T12:48:00.343Z,1.20
2023-03-26T12:58:16.886Z,0.80
2023-03-26T13:08:40.077Z,1.00
2023-03-26T13:18:55.573Z,0.80
2023-03-26T13:29:06.015Z,0.70
2023-03-26T13:39:31.429Z,0.90
2023-03-26T13:49:38.089Z,0.73
2023-03-26T13:59:47.386Z,0.80
2023-03-26T14:09:58.219Z,0.80
2023-03-26T14:20:17.790Z,1.00
2023-03-26T14:30:49.995Z,0.80
2023-03-26T14:40:58.227Z,0.70
2023-03-26T14:51:08.819Z,0.50
2023-03-26T15:01:27.923Z,0.50
2023-03-26T15:11:48.105Z,0.85
2023-03-26T15:22:08.052Z,0.63
2023-03-26T15:32:29.479Z,0.50
2023-03-26T15:42:30.945Z,0.20
2023-03-26T15:52:38.140Z,0.60
2023-03-26T16:03:05.070Z,1.23
2023-03-26T16:13:31.513Z,5.93
2023-03-26T16:23:47.738Z,7.30
2023-03-26T16:34:07.327Z,6.20
2023-03-26T16:44:34.826Z,9.13
2023-03-26T16:55:03.591Z,9.00
2023-03-26T17:05:31.853Z,9.57
2023-03-26T17:15:48.872Z,9.33
2023-03-26T17:26:19.581Z,7.20
2023-03-26T17:36:39.635Z,7.10
2023-03-26T17:46:45.065Z,5.15
2023-03-26T17:56:48.762Z,4.47
2023-03-26T18:07:02.416Z,5.57
2023-03-26T18:17:04.220Z,2.53
2023-03-26T18:27:15.212Z,1.37
2023-03-26T18:37:31.066Z,1.25
2023-03-26T18:47:32.760Z,0.30
2023-03-26T18:57:34.377Z,0.50
2023-03-26T19:07:36.110Z,0.68
2023-03-26T19:17:44.215Z,0.90
2023-03-26T19:27:45.877Z,0.60
2023-03-26T19:37:51.954Z,0.60
2023-03-26T19:48:07.413Z,0.70
2023-03-26T19:58:13.556Z,0.80
2023-03-26T20:08:16.127Z,1.17
2023-03-26T20:18:17.619Z,3.80
2023-03-26T20:28:19.590Z,1.47
2023-03-26T20:38:26.522Z,2.00
2023-03-26T20:48:34.456Z,1.00
2023-03-26T20:58:35.933Z,1.10
2023-03-26T21:08:38.165Z,1.10
2023-03-26T21:18:40.023Z,1.00
2023-03-26T21:28:48.936Z,1.00
2023-03-26T21:38:50.654Z,1.05
2023-03-26T21:48:52.419Z,2.88
2023-03-26T21:59:11.333Z,3.97
2023-03-26T22:09:15.008Z,4.60
2023-03-26T22:19:18.138Z,5.15
2023-03-26T22:29:19.788Z,4.90
2023-03-26T22:39:21.292Z,5.32
2023-03-26T22:49:23.390Z,5.07
2023-03-26T22:59:25.016Z,4.57
2023-03-26T23:09:26.502Z,4.50
2023-03-26T23:19:28.021Z,3.33
2023-03-26T23:29:29.482Z,2.55
2023-03-26T23:39:31.013Z,2.53
2023-03-26T23:49:32.549Z,2.17
2023-03-26T23:59:34.119Z,3.08
